sensor_id;sensor_type;location;lat;lon;timestamp;P1;durP1;ratioP1;P2;durP2;ratioP2
8001;SDS011;4046;48.774;8.732;2023-03-19T00:00:13;1.77;;;1.67;;
8001;SDS011;4046;48.774;8.732;2023-03-19T00:02:40;1.70;;;1.60;;
8001;SDS011;4046;48.774;8.732;2023-03-19T00:05:07;1.80;;;1.70;;
8001;SDS011;4046;48.774;8.732;2023-03-19T00:07:33;1.77;;;1.67;;
8001;SDS011;4046;48.774;8.732;2023-03-19T00:09:59;1.80;;;1.70;;
8001;SDS011;4046;48.774;8.732;2023-03-19T00:12:25;3.40;;;1.87;;
8001;SDS011;4046;48.774;8.732;2023-03-19T00:14:52;2.00;;;1.90;;
8001;SDS011;4046;48.774;8.732;2023-03-19T00:17:18;1.70;;;1.60;;
8001;SDS011;4046;48.774;8.732;2023-03-19T00:19:44;1.90;;;1.80;;
8001;SDS011;4046;48.774;8.732;2023-03-19T00:22:10;1.70;;;1.60;;
8001;SDS011;4046;48.774;8.732;2023-03-19T00:24:37;1.70;;;1.60;;
8001;SDS011;4046;48.774;8.732;2023-03-19T00:27:03;1.60;;;1.50;;
8001;SDS011;4046;48.774;8.732;2023-03-19T00:29:30;1.60;;;1.50;;
8001;SDS011;4046;48.774;8.732;2023-03-19T00:31:56;2.20;;;2.00;;
8001;SDS011;4046;48.774;8.732;2023-03-19T00:34:22;1.73;;;1.63;;
8001;SDS011;4046;48.774;8.732;2023-03-19T00:36:48;1.93;;;1.83;;
8001;SDS011;4046;48.774;8.732;2023-03-19T00:39:15;1.80;;;1.70;;
8001;SDS011;4046;48.774;8.732;2023-03-19T00:41:42;1.70;;;1.60;;
8001;SDS011;4046;48.774;8.732;2023-03-19T00:44:17;1.90;;;1.80;;
8001;SDS011;4046;48.774;8.732;2023-03-19T00:46:44;2.10;;;2.00;;
8001;SDS011;4046;48.774;8.732;2023-03-19T00:49:11;1.60;;;1.50;;
8001;SDS011;4046;48.774;8.732;2023-03-19T00:51:37;1.80;;;1.70;;
8001;SDS011;4046;48.774;8.732;2023-03-19T00:54:09;1.77;;;1.67;;
8001;SDS011;4046;48.774;8.732;2023-03-19T00:56:36;2.03;;;1.93;;
8001;SDS011;4046;48.774;8.732;2023-03-19T00:59:02;2.00;;;1.90;;
8001;SDS011;4046;48.774;8.732;2023-03-19T01:01:28;2.00;;;1.70;;
8001;SDS011;4046;48.774;8.732;2023-03-19T01:03:55;2.00;;;1.80;;
8001;SDS011;4046;48.774;8.732;2023-03-19T01:06:21;1.90;;;1.80;;
8001;SDS011;4046;48.774;8.732;2023-03-19T01:08:47;1.80;;;1.70;;
8001;SDS011;4046;48.774;8.732;2023-03-19T01:11:13;2.00;;;1.80;;
8001;SDS011;4046;48.774;8.732;2023-03-19T01:13:41;1.87;;;1.77;;
8001;SDS011;4046;48.774;8.732;2023-03-19T01:16:08;2.20;;;2.00;;
8001;SDS011;4046;48.774;8.732;2023-03-19T01:18:35;1.77;;;1.67;;
8001;SDS011;4046;48.774;8.732;2023-03-19T01:21:02;2.23;;;2.10;;
8001;SDS011;4046;48.774;8.732;2023-03-19T01:23:28;1.70;;;1.60;;
8001;SDS011;4046;48.774;8.732;2023-03-19T01:25:55;1.80;;;1.70;;
8001;SDS011;4046;48.774;8.732;2023-03-19T01:28:22;2.10;;;2.00;;
8001;SDS011;4046;48.774;8.732;2023-03-19T01:30:48;2.20;;;2.00;;
8001;SDS011;4046;48.774;8.732;2023-03-19T01:33:14;1.80;;;1.70;;
8001;SDS011;4046;48.774;8.732;2023-03-19T01:35:41;2.20;;;1.67;;
8001;SDS011;4046;48.774;8.732;2023-03-19T01:38:09;2.03;;;1.93;;
8001;SDS011;4046;48.774;8.732;2023-03-19T01:40:42;2.00;;;1.90;;
8001;SDS011;4046;48.774;8.732;2023-03-19T01:43:20;2.00;;;1.80;;
8001;SDS011;4046;48.774;8.732;2023-03-19T01:45:51;2.27;;;2.07;;
8001;SDS011;4046;48.774;8.732;2023-03-19T01:48:42;2.03;;;1.83;;
8001;SDS011;4046;48.774;8.732;2023-03-19T01:51:12;2.00;;;1.90;;
8001;SDS011;4046;48.774;8.732;2023-03-19T01:53:42;2.10;;;1.97;;
8001;SDS011;4046;48.774;8.732;2023-03-19T01:56:19;1.70;;;1.60;;
8001;SDS011;4046;48.774;8.732;2023-03-19T01:58:48;2.00;;;1.90;;
8001;SDS011;4046;48.774;8.732;2023-03-19T02:01:17;2.03;;;1.93;;
8001;SDS011;4046;48.774;8.732;2023-03-19T02:03:45;1.73;;;1.63;;
8001;SDS011;4046;48.774;8.732;2023-03-19T02:06:14;2.20;;;2.10;;
8001;SDS011;4046;48.774;8.732;2023-03-19T02:08:41;1.80;;;1.70;;
8001;SDS011;4046;48.774;8.732;2023-03-19T02:11:07;2.20;;;1.93;;
8001;SDS011;4046;48.774;8.732;2023-03-19T02:13:34;2.00;;;1.90;;
8001;SDS011;4046;48.774;8.732;2023-03-19T02:16:01;2.10;;;2.00;;
8001;SDS011;4046;48.774;8.732;2023-03-19T02:18:27;2.33;;;2.17;;
8001;SDS011;4046;48.774;8.732;2023-03-19T02:20:58;1.87;;;1.77;;
8001;SDS011;4046;48.774;8.732;2023-03-19T02:28:35;2.53;;;1.80;;
8001;SDS011;4046;48.774;8.732;2023-03-19T02:31:04;1.80;;;1.70;;
8001;SDS011;4046;48.774;8.732;2023-03-19T02:33:31;1.80;;;1.70;;
8001;SDS011;4046;48.774;8.732;2023-03-19T02:35:57;2.40;;;2.20;;
8001;SDS011;4046;48.774;8.732;2023-03-19T02:38:24;1.67;;;1.57;;
8001;SDS011;4046;48.774;8.732;2023-03-19T02:41:05;2.30;;;2.17;;
8001;SDS011;4046;48.774;8.732;2023-03-19T02:43:33;2.10;;;2.00;;
8001;SDS011;4046;48.774;8.732;2023-03-19T02:46:02;2.00;;;1.90;;
8001;SDS011;4046;48.774;8.732;2023-03-19T02:48:31;1.83;;;1.73;;
8001;SDS011;4046;48.774;8.732;2023-03-19T02:50:57;2.10;;;2.00;;
8001;SDS011;4046;48.774;8.732;2023-03-19T02:53:24;1.70;;;1.60;;
8001;SDS011;4046;48.774;8.732;2023-03-19T02:55:50;1.77;;;1.67;;
8001;SDS011;4046;48.774;8.732;2023-03-19T02:58:16;1.90;;;1.80;;
8001;SDS011;4046;48.774;8.732;2023-03-19T03:00:43;1.83;;;1.73;;
8001;SDS011;4046;48.774;8.732;2023-03-19T03:03:10;2.37;;;2.17;;
8001;SDS011;4046;48.774;8.732;2023-03-19T03:05:36;1.80;;;1.70;;
8001;SDS011;4046;48.774;8.732;2023-03-19T03:08:02;2.10;;;1.90;;
8001;SDS011;4046;48.774;8.732;2023-03-19T03:10:29;2.23;;;2.03;;
8001;SDS011;4046;48.774;8.732;2023-03-19T03:12:57;2.00;;;1.90;;
8001;SDS011;4046;48.774;8.732;2023-03-19T03:15:23;2.10;;;2.00;;
8001;SDS011;4046;48.774;8.732;2023-03-19T03:17:50;2.17;;;1.97;;
8001;SDS011;4046;48.774;8.732;2023-03-19T03:20:16;2.00;;;1.90;;
8001;SDS011;4046;48.774;8.732;2023-03-19T03:22:44;2.23;;;2.13;;
8001;SDS011;4046;48.774;8.732;2023-03-19T03:25:11;1.80;;;1.70;;
8001;SDS011;4046;48.774;8.732;2023-03-19T03:27:38;1.80;;;1.70;;
8001;SDS011;4046;48.774;8.732;2023-03-19T03:30:05;2.00;;;1.90;;
8001;SDS011;4046;48.774;8.732;2023-03-19T03:32:33;1.90;;;1.80;;
8001;SDS011;4046;48.774;8.732;2023-03-19T03:35:00;2.37;;;2.17;;
8001;SDS011;4046;48.774;8.732;2023-03-19T03:37:26;1.90;;;1.80;;
8001;SDS011;4046;48.774;8.732;2023-03-19T03:39:52;1.70;;;1.60;;
8001;SDS011;4046;48.774;8.732;2023-03-19T03:42:18;1.97;;;1.87;;
8001;SDS011;4046;48.774;8.732;2023-03-19T03:44:45;1.73;;;1.63;;
8001;SDS011;4046;48.774;8.732;2023-03-19T03:47:11;1.80;;;1.70;;
8001;SDS011;4046;48.774;8.732;2023-03-19T03:49:38;1.93;;;1.83;;
8001;SDS011;4046;48.774;8.732;2023-03-19T03:52:04;2.13;;;1.93;;
8001;SDS011;4046;48.774;8.732;2023-03-19T03:54:30;2.10;;;2.00;;
8001;SDS011;4046;48.774;8.732;2023-03-19T03:56:56;2.27;;;2.07;;
8001;SDS011;4046;48.774;8.732;2023-03-19T03:59:23;2.13;;;1.93;;
8001;SDS011;4046;48.774;8.732;2023-03-19T04:01:49;2.13;;;2.03;;
8001;SDS011;4046;48.774;8.732;2023-03-19T04:04:16;2.00;;;1.90;;
8001;SDS011;4046;48.774;8.732;2023-03-19T04:06:42;2.00;;;1.90;;
8001;SDS011;4046;48.774;8.732;2023-03-19T04:09:08;2.10;;;2.00;;
8001;SDS011;4046;48.774;8.732;2023-03-19T04:11:35;1.80;;;1.70;;
8001;SDS011;4046;48.774;8.732;2023-03-19T04:14:01;2.20;;;2.00;;
8001;SDS011;4046;48.774;8.732;2023-03-19T04:16:28;2.07;;;1.97;;
8001;SDS011;4046;48.774;8.732;2023-03-19T04:18:54;2.23;;;2.13;;
8001;SDS011;4046;48.774;8.732;2023-03-19T04:21:20;2.03;;;1.93;;
8001;SDS011;4046;48.774;8.732;2023-03-19T04:23:46;1.80;;;1.70;;
8001;SDS011;4046;48.774;8.732;2023-03-19T04:26:12;1.70;;;1.60;;
8001;SDS011;4046;48.774;8.732;2023-03-19T04:28:39;2.23;;;2.03;;
8001;SDS011;4046;48.774;8.732;2023-03-19T04:31:06;2.30;;;2.20;;
8001;SDS011;4046;48.774;8.732;2023-03-19T04:33:34;1.70;;;1.60;;
8001;SDS011;4046;48.774;8.732;2023-03-19T04:36:01;1.93;;;1.83;;
8001;SDS011;4046;48.774;8.732;2023-03-19T04:38:27;2.13;;;1.93;;
8001;SDS011;4046;48.774;8.732;2023-03-19T04:40:54;1.90;;;1.80;;
8001;SDS011;4046;48.774;8.732;2023-03-19T04:43:21;1.83;;;1.73;;
8001;SDS011;4046;48.774;8.732;2023-03-19T04:45:48;1.90;;;1.80;;
8001;SDS011;4046;48.774;8.732;2023-03-19T04:48:15;1.80;;;1.70;;
8001;SDS011;4046;48.774;8.732;2023-03-19T04:50:43;2.00;;;1.90;;
8001;SDS011;4046;48.774;8.732;2023-03-19T04:53:11;1.80;;;1.70;;
8001;SDS011;4046;48.774;8.732;2023-03-19T04:55:38;2.10;;;2.00;;
8001;SDS011;4046;48.774;8.732;2023-03-19T04:58:04;1.97;;;1.87;;
8001;SDS011;4046;48.774;8.732;2023-03-19T05:00:31;1.90;;;1.80;;
8001;SDS011;4046;48.774;8.732;2023-03-19T05:02:57;2.30;;;2.10;;
8001;SDS011;4046;48.774;8.732;2023-03-19T05:05:23;2.00;;;1.90;;
8001;SDS011;4046;48.774;8.732;2023-03-19T05:07:50;2.43;;;1.80;;
8001;SDS011;4046;48.774;8.732;2023-03-19T05:10:16;1.93;;;1.83;;
8001;SDS011;4046;48.774;8.732;2023-03-19T05:12:42;3.77;;;2.00;;
8001;SDS011;4046;48.774;8.732;2023-03-19T05:15:09;2.23;;;1.90;;
8001;SDS011;4046;48.774;8.732;2023-03-19T05:17:35;2.07;;;1.97;;
8001;SDS011;4046;48.774;8.732;2023-03-19T05:20:02;1.90;;;1.77;;
8001;SDS011;4046;48.774;8.732;2023-03-19T05:22:29;1.90;;;1.80;;
8001;SDS011;4046;48.774;8.732;2023-03-19T05:24:55;1.90;;;1.80;;
8001;SDS011;4046;48.774;8.732;2023-03-19T05:27:22;1.77;;;1.67;;
8001;SDS011;4046;48.774;8.732;2023-03-19T05:29:48;2.50;;;2.30;;
8001;SDS011;4046;48.774;8.732;2023-03-19T05:32:14;1.60;;;1.50;;
8001;SDS011;4046;48.774;8.732;2023-03-19T05:34:41;1.70;;;1.60;;
8001;SDS011;4046;48.774;8.732;2023-03-19T05:37:07;2.00;;;1.90;;
8001;SDS011;4046;48.774;8.732;2023-03-19T05:39:34;1.90;;;1.80;;
8001;SDS011;4046;48.774;8.732;2023-03-19T05:42:00;1.60;;;1.50;;
8001;SDS011;4046;48.774;8.732;2023-03-19T05:44:27;2.00;;;1.90;;
8001;SDS011;4046;48.774;8.732;2023-03-19T05:46:53;2.10;;;2.00;;
8001;SDS011;4046;48.774;8.732;2023-03-19T05:49:20;1.80;;;1.70;;
8001;SDS011;4046;48.774;8.732;2023-03-19T05:51:46;1.80;;;1.70;;
8001;SDS011;4046;48.774;8.732;2023-03-19T05:54:12;1.70;;;1.60;;
8001;SDS011;4046;48.774;8.732;2023-03-19T05:56:39;2.10;;;1.90;;
8001;SDS011;4046;48.774;8.732;2023-03-19T05:59:05;1.80;;;1.70;;
8001;SDS011;4046;48.774;8.732;2023-03-19T06:01:31;1.87;;;1.77;;
8001;SDS011;4046;48.774;8.732;2023-03-19T06:03:57;1.70;;;1.60;;
8001;SDS011;4046;48.774;8.732;2023-03-19T06:06:23;1.93;;;1.80;;
8001;SDS011;4046;48.774;8.732;2023-03-19T06:08:50;1.90;;;1.80;;
8001;SDS011;4046;48.774;8.732;2023-03-19T06:11:16;2.03;;;1.90;;
8001;SDS011;4046;48.774;8.732;2023-03-19T06:13:42;1.70;;;1.60;;
8001;SDS011;4046;48.774;8.732;2023-03-19T06:16:08;1.80;;;1.70;;
8001;SDS011;4046;48.774;8.732;2023-03-19T06:18:35;1.80;;;1.70;;
8001;SDS011;4046;48.774;8.732;2023-03-19T06:21:01;1.90;;;1.70;;
8001;SDS011;4046;48.774;8.732;2023-03-19T06:23:28;1.90;;;1.80;;
8001;SDS011;4046;48.774;8.732;2023-03-19T06:25:54;1.77;;;1.67;;
8001;SDS011;4046;48.774;8.732;2023-03-19T06:28:21;1.80;;;1.70;;
8001;SDS011;4046;48.774;8.732;2023-03-19T06:30:47;2.00;;;1.80;;
8001;SDS011;4046;48.774;8.732;2023-03-19T06:33:13;1.70;;;1.60;;
8001;SDS011;4046;48.774;8.732;2023-03-19T06:35:39;1.63;;;1.53;;
8001;SDS011;4046;48.774;8.732;2023-03-19T06:38:06;1.80;;;1.70;;
8001;SDS011;4046;48.774;8.732;2023-03-19T06:40:32;1.90;;;1.80;;
8001;SDS011;4046;48.774;8.732;2023-03-19T06:42:59;1.87;;;1.57;;
8001;SDS011;4046;48.774;8.732;2023-03-19T06:45:25;1.93;;;1.83;;
8001;SDS011;4046;48.774;8.732;2023-03-19T06:47:51;1.97;;;1.77;;
8001;SDS011;4046;48.774;8.732;2023-03-19T06:50:18;2.07;;;1.87;;
8001;SDS011;4046;48.774;8.732;2023-03-19T06:52:44;1.40;;;1.30;;
8001;SDS011;4046;48.774;8.732;2023-03-19T06:55:11;1.90;;;1.80;;
8001;SDS011;4046;48.774;8.732;2023-03-19T06:57:37;1.90;;;1.80;;
8001;SDS011;4046;48.774;8.732;2023-03-19T07:00:04;1.47;;;1.37;;
8001;SDS011;4046;48.774;8.732;2023-03-19T07:02:31;1.80;;;1.70;;
8001;SDS011;4046;48.774;8.732;2023-03-19T07:04:57;1.63;;;1.53;;
8001;SDS011;4046;48.774;8.732;2023-03-19T07:07:24;1.67;;;1.57;;
8001;SDS011;4046;48.774;8.732;2023-03-19T07:09:50;1.80;;;1.70;;
8001;SDS011;4046;48.774;8.732;2023-03-19T07:12:16;1.70;;;1.60;;
8001;SDS011;4046;48.774;8.732;2023-03-19T07:14:42;1.70;;;1.60;;
8001;SDS011;4046;48.774;8.732;2023-03-19T07:17:09;1.50;;;1.40;;
8001;SDS011;4046;48.774;8.732;2023-03-19T07:19:35;1.97;;;1.87;;
8001;SDS011;4046;48.774;8.732;2023-03-19T07:22:02;1.50;;;1.40;;
8001;SDS011;4046;48.774;8.732;2023-03-19T07:24:28;2.00;;;1.70;;
8001;SDS011;4046;48.774;8.732;2023-03-19T07:26:54;1.60;;;1.50;;
8001;SDS011;4046;48.774;8.732;2023-03-19T07:29:21;1.60;;;1.50;;
8001;SDS011;4046;48.774;8.732;2023-03-19T07:31:48;3.30;;;1.57;;
8001;SDS011;4046;48.774;8.732;2023-03-19T07:34:14;1.70;;;1.60;;
8001;SDS011;4046;48.774;8.732;2023-03-19T07:36:40;1.60;;;1.50;;
8001;SDS011;4046;48.774;8.732;2023-03-19T07:39:06;1.80;;;1.70;;
8001;SDS011;4046;48.774;8.732;2023-03-19T07:41:33;1.63;;;1.53;;
8001;SDS011;4046;48.774;8.732;2023-03-19T07:43:59;1.90;;;1.80;;
8001;SDS011;4046;48.774;8.732;2023-03-19T07:46:25;1.63;;;1.53;;
8001;SDS011;4046;48.774;8.732;2023-03-19T07:48:51;1.83;;;1.73;;
8001;SDS011;4046;48.774;8.732;2023-03-19T07:51:17;1.83;;;1.73;;
8001;SDS011;4046;48.774;8.732;2023-03-19T07:53:44;1.80;;;1.70;;
8001;SDS011;4046;48.774;8.732;2023-03-19T07:56:10;1.80;;;1.70;;
8001;SDS011;4046;48.774;8.732;2023-03-19T07:58:37;2.00;;;1.90;;
8001;SDS011;4046;48.774;8.732;2023-03-19T08:01:03;1.77;;;1.67;;
8001;SDS011;4046;48.774;8.732;2023-03-19T08:03:30;1.70;;;1.60;;
8001;SDS011;4046;48.774;8.732;2023-03-19T08:05:56;1.50;;;1.40;;
8001;SDS011;4046;48.774;8.732;2023-03-19T08:08:22;1.90;;;1.80;;
8001;SDS011;4046;48.774;8.732;2023-03-19T08:10:49;1.77;;;1.67;;
8001;SDS011;4046;48.774;8.732;2023-03-19T08:13:17;1.50;;;1.40;;
8001;SDS011;4046;48.774;8.732;2023-03-19T08:15:43;1.70;;;1.60;;
8001;SDS011;4046;48.774;8.732;2023-03-19T08:18:10;2.00;;;1.90;;
8001;SDS011;4046;48.774;8.732;2023-03-19T08:20:36;1.90;;;1.80;;
8001;SDS011;4046;48.774;8.732;2023-03-19T08:23:02;2.00;;;1.90;;
8001;SDS011;4046;48.774;8.732;2023-03-19T08:25:29;1.50;;;1.40;;
8001;SDS011;4046;48.774;8.732;2023-03-19T08:28:00;1.80;;;1.70;;
8001;SDS011;4046;48.774;8.732;2023-03-19T08:30:26;1.50;;;1.40;;
8001;SDS011;4046;48.774;8.732;2023-03-19T08:32:52;1.70;;;1.60;;
8001;SDS011;4046;48.774;8.732;2023-03-19T08:35:18;1.97;;;1.80;;
8001;SDS011;4046;48.774;8.732;2023-03-19T08:37:45;1.60;;;1.50;;
8001;SDS011;4046;48.774;8.732;2023-03-19T08:40:11;1.63;;;1.53;;
8001;SDS011;4046;48.774;8.732;2023-03-19T08:42:37;2.47;;;1.67;;
8001;SDS011;4046;48.774;8.732;2023-03-19T08:45:07;1.90;;;1.80;;
8001;SDS011;4046;48.774;8.732;2023-03-19T08:47:34;1.80;;;1.70;;
8001;SDS011;4046;48.774;8.732;2023-03-19T08:50:00;1.50;;;1.40;;
8001;SDS011;4046;48.774;8.732;2023-03-19T08:52:26;2.10;;;1.77;;
8001;SDS011;4046;48.774;8.732;2023-03-19T08:54:53;1.80;;;1.70;;
8001;SDS011;4046;48.774;8.732;2023-03-19T08:57:19;1.63;;;1.53;;
8001;SDS011;4046;48.774;8.732;2023-03-19T08:59:45;1.73;;;1.63;;
8001;SDS011;4046;48.774;8.732;2023-03-19T09:02:11;1.77;;;1.67;;
8001;SDS011;4046;48.774;8.732;2023-03-19T09:04:41;1.83;;;1.73;;
8001;SDS011;4046;48.774;8.732;2023-03-19T09:07:08;1.70;;;1.60;;
8001;SDS011;4046;48.774;8.732;2023-03-19T09:09:40;1.77;;;1.67;;
8001;SDS011;4046;48.774;8.732;2023-03-19T09:12:08;1.90;;;1.80;;
8001;SDS011;4046;48.774;8.732;2023-03-19T09:14:36;1.80;;;1.70;;
8001;SDS011;4046;48.774;8.732;2023-03-19T09:17:03;1.80;;;1.70;;
8001;SDS011;4046;48.774;8.732;2023-03-19T09:19:29;1.80;;;1.70;;
8001;SDS011;4046;48.774;8.732;2023-03-19T09:21:55;2.50;;;2.30;;
8001;SDS011;4046;48.774;8.732;2023-03-19T09:24:22;2.03;;;1.90;;
8001;SDS011;4046;48.774;8.732;2023-03-19T09:26:48;1.70;;;1.60;;
8001;SDS011;4046;48.774;8.732;2023-03-19T09:29:14;1.50;;;1.40;;
8001;SDS011;4046;48.774;8.732;2023-03-19T09:31:41;1.97;;;1.73;;
8001;SDS011;4046;48.774;8.732;2023-03-19T09:34:07;1.40;;;1.30;;
8001;SDS011;4046;48.774;8.732;2023-03-19T09:36:34;1.70;;;1.60;;
8001;SDS011;4046;48.774;8.732;2023-03-19T09:39:01;2.33;;;1.73;;
8001;SDS011;4046;48.774;8.732;2023-03-19T09:41:40;2.10;;;2.00;;
8001;SDS011;4046;48.774;8.732;2023-03-19T09:44:28;1.70;;;1.60;;
8001;SDS011;4046;48.774;8.732;2023-03-19T09:47:19;1.50;;;1.40;;
8001;SDS011;4046;48.774;8.732;2023-03-19T09:49:54;1.70;;;1.60;;
8001;SDS011;4046;48.774;8.732;2023-03-19T09:52:29;1.57;;;1.47;;
8001;SDS011;4046;48.774;8.732;2023-03-19T09:54:57;2.20;;;2.00;;
8001;SDS011;4046;48.774;8.732;2023-03-19T09:57:29;1.83;;;1.73;;
8001;SDS011;4046;48.774;8.732;2023-03-19T09:59:57;2.03;;;1.80;;
8001;SDS011;4046;48.774;8.732;2023-03-19T10:07:54;2.47;;;2.27;;
8001;SDS011;4046;48.774;8.732;2023-03-19T10:10:49;1.57;;;1.47;;
8001;SDS011;4046;48.774;8.732;2023-03-19T10:16:15;2.03;;;1.93;;
8001;SDS011;4046;48.774;8.732;2023-03-19T10:18:48;1.80;;;1.70;;
8001;SDS011;4046;48.774;8.732;2023-03-19T10:21:27;1.70;;;1.60;;
8001;SDS011;4046;48.774;8.732;2023-03-19T10:24:02;2.10;;;1.67;;
8001;SDS011;4046;48.774;8.732;2023-03-19T10:26:38;1.60;;;1.50;;
8001;SDS011;4046;48.774;8.732;2023-03-19T10:31:48;2.40;;;1.60;;
8001;SDS011;4046;48.774;8.732;2023-03-19T10:34:28;1.70;;;1.60;;
8001;SDS011;4046;48.774;8.732;2023-03-19T10:37:12;1.60;;;1.50;;
8001;SDS011;4046;48.774;8.732;2023-03-19T10:39:46;1.67;;;1.40;;
8001;SDS011;4046;48.774;8.732;2023-03-19T10:42:24;1.40;;;1.30;;
8001;SDS011;4046;48.774;8.732;2023-03-19T10:45:00;1.83;;;1.73;;
8001;SDS011;4046;48.774;8.732;2023-03-19T10:47:45;1.50;;;1.40;;
8001;SDS011;4046;48.774;8.732;2023-03-19T10:50:20;1.70;;;1.60;;
8001;SDS011;4046;48.774;8.732;2023-03-19T10:55:43;1.70;;;1.60;;
8001;SDS011;4046;48.774;8.732;2023-03-19T10:58:30;1.60;;;1.50;;
8001;SDS011;4046;48.774;8.732;2023-03-19T11:01:02;1.60;;;1.50;;
8001;SDS011;4046;48.774;8.732;2023-03-19T11:06:08;1.63;;;1.53;;
8001;SDS011;4046;48.774;8.732;2023-03-19T11:08:42;1.57;;;1.47;;
8001;SDS011;4046;48.774;8.732;2023-03-19T11:14:05;2.13;;;1.77;;
8001;SDS011;4046;48.774;8.732;2023-03-19T11:19:38;1.53;;;1.43;;
8001;SDS011;4046;48.774;8.732;2023-03-19T11:22:11;1.60;;;1.50;;
8001;SDS011;4046;48.774;8.732;2023-03-19T11:24:47;1.70;;;1.60;;
8001;SDS011;4046;48.774;8.732;2023-03-19T11:27:15;1.87;;;1.77;;
8001;SDS011;4046;48.774;8.732;2023-03-19T11:29:42;1.77;;;1.60;;
8001;SDS011;4046;48.774;8.732;2023-03-19T11:34:50;1.40;;;1.30;;
8001;SDS011;4046;48.774;8.732;2023-03-19T11:37:26;1.63;;;1.53;;
8001;SDS011;4046;48.774;8.732;2023-03-19T11:48:37;1.60;;;1.50;;
8001;SDS011;4046;48.774;8.732;2023-03-19T11:51:09;1.70;;;1.60;;
8001;SDS011;4046;48.774;8.732;2023-03-19T11:53:52;1.67;;;1.57;;
8001;SDS011;4046;48.774;8.732;2023-03-19T11:59:09;2.40;;;1.43;;
8001;SDS011;4046;48.774;8.732;2023-03-19T12:08:00;2.57;;;1.40;;
8001;SDS011;4046;48.774;8.732;2023-03-19T12:10:51;1.60;;;1.50;;
8001;SDS011;4046;48.774;8.732;2023-03-19T12:21:52;1.50;;;1.40;;
8001;SDS011;4046;48.774;8.732;2023-03-19T12:24:34;1.53;;;1.30;;
8001;SDS011;4046;48.774;8.732;2023-03-19T12:33:01;2.00;;;1.83;;
8001;SDS011;4046;48.774;8.732;2023-03-19T12:35:48;1.50;;;1.40;;
8001;SDS011;4046;48.774;8.732;2023-03-19T12:38:19;1.43;;;1.33;;
8001;SDS011;4046;48.774;8.732;2023-03-19T12:41:28;1.30;;;1.20;;
8001;SDS011;4046;48.774;8.732;2023-03-19T12:43:57;1.50;;;1.37;;
8001;SDS011;4046;48.774;8.732;2023-03-19T12:46:37;1.40;;;1.30;;
8001;SDS011;4046;48.774;8.732;2023-03-19T12:52:00;2.17;;;1.33;;
8001;SDS011;4046;48.774;8.732;2023-03-19T12:54:41;1.70;;;1.20;;
8001;SDS011;4046;48.774;8.732;2023-03-19T12:57:18;1.33;;;1.23;;
8001;SDS011;4046;48.774;8.732;2023-03-19T13:00:00;1.60;;;1.37;;
8001;SDS011;4046;48.774;8.732;2023-03-19T13:05:46;1.30;;;1.10;;
8001;SDS011;4046;48.774;8.732;2023-03-19T13:08:26;1.40;;;1.27;;
8001;SDS011;4046;48.774;8.732;2023-03-19T13:10:58;1.63;;;1.37;;
8001;SDS011;4046;48.774;8.732;2023-03-19T13:15:59;1.33;;;1.23;;
8001;SDS011;4046;48.774;8.732;2023-03-19T13:18:39;2.80;;;1.30;;
8001;SDS011;4046;48.774;8.732;2023-03-19T13:21:16;1.50;;;1.40;;
8001;SDS011;4046;48.774;8.732;2023-03-19T13:23:45;1.40;;;1.30;;
8001;SDS011;4046;48.774;8.732;2023-03-19T13:26:13;1.50;;;1.40;;
8001;SDS011;4046;48.774;8.732;2023-03-19T13:29:01;1.60;;;1.50;;
8001;SDS011;4046;48.774;8.732;2023-03-19T13:31:49;1.60;;;1.47;;
8001;SDS011;4046;48.774;8.732;2023-03-19T13:36:43;1.67;;;1.57;;
8001;SDS011;4046;48.774;8.732;2023-03-19T13:39:19;1.73;;;1.13;;
8001;SDS011;4046;48.774;8.732;2023-03-19T13:41:56;1.60;;;1.20;;
8001;SDS011;4046;48.774;8.732;2023-03-19T13:44:46;1.40;;;1.30;;
8001;SDS011;4046;48.774;8.732;2023-03-19T13:58:05;1.47;;;1.37;;
8001;SDS011;4046;48.774;8.732;2023-03-19T14:01:06;1.40;;;1.10;;
8001;SDS011;4046;48.774;8.732;2023-03-19T14:03:35;2.33;;;1.20;;
8001;SDS011;4046;48.774;8.732;2023-03-19T14:07:08;1.47;;;1.37;;
8001;SDS011;4046;48.774;8.732;2023-03-19T14:09:30;1.47;;;1.30;;
8001;SDS011;4046;48.774;8.732;2023-03-19T14:14:46;2.33;;;1.50;;
8001;SDS011;4046;48.774;8.732;2023-03-19T14:17:17;1.30;;;1.20;;
8001;SDS011;4046;48.774;8.732;2023-03-19T14:22:39;1.40;;;1.20;;
8001;SDS011;4046;48.774;8.732;2023-03-19T14:34:19;1.30;;;1.10;;
8001;SDS011;4046;48.774;8.732;2023-03-19T14:36:52;2.83;;;1.60;;
8001;SDS011;4046;48.774;8.732;2023-03-19T14:39:24;1.60;;;1.20;;
8001;SDS011;4046;48.774;8.732;2023-03-19T14:41:59;1.33;;;1.07;;
8001;SDS011;4046;48.774;8.732;2023-03-19T14:47:39;1.43;;;1.27;;
8001;SDS011;4046;48.774;8.732;2023-03-19T14:56:12;1.47;;;1.20;;
8001;SDS011;4046;48.774;8.732;2023-03-19T14:59:13;1.50;;;1.30;;
8001;SDS011;4046;48.774;8.732;2023-03-19T15:01:38;2.80;;;1.50;;
8001;SDS011;4046;48.774;8.732;2023-03-19T15:04:12;1.50;;;1.40;;
8001;SDS011;4046;48.774;8.732;2023-03-19T15:06:42;1.47;;;1.23;;
8001;SDS011;4046;48.774;8.732;2023-03-19T15:09:20;1.20;;;0.90;;
8001;SDS011;4046;48.774;8.732;2023-03-19T15:15:00;1.33;;;1.20;;
8001;SDS011;4046;48.774;8.732;2023-03-19T15:17:31;1.27;;;0.90;;
8001;SDS011;4046;48.774;8.732;2023-03-19T15:19:59;1.40;;;1.20;;
8001;SDS011;4046;48.774;8.732;2023-03-19T15:22:32;1.30;;;1.00;;
8001;SDS011;4046;48.774;8.732;2023-03-19T15:25:09;1.30;;;1.10;;
8001;SDS011;4046;48.774;8.732;2023-03-19T15:27:38;1.40;;;1.10;;
8001;SDS011;4046;48.774;8.732;2023-03-19T15:30:18;1.47;;;1.17;;
8001;SDS011;4046;48.774;8.732;2023-03-19T15:32:46;1.27;;;1.00;;
8001;SDS011;4046;48.774;8.732;2023-03-19T15:35:12;1.20;;;1.00;;
8001;SDS011;4046;48.774;8.732;2023-03-19T15:37:39;1.40;;;1.30;;
8001;SDS011;4046;48.774;8.732;2023-03-19T15:40:09;1.30;;;1.00;;
8001;SDS011;4046;48.774;8.732;2023-03-19T15:42:38;1.50;;;1.10;;
8001;SDS011;4046;48.774;8.732;2023-03-19T15:47:44;1.33;;;1.10;;
8001;SDS011;4046;48.774;8.732;2023-03-19T15:50:18;1.40;;;1.10;;
8001;SDS011;4046;48.774;8.732;2023-03-19T15:52:49;1.20;;;1.10;;
8001;SDS011;4046;48.774;8.732;2023-03-19T15:55:23;1.30;;;1.20;;
8001;SDS011;4046;48.774;8.732;2023-03-19T15:57:51;1.20;;;1.00;;
8001;SDS011;4046;48.774;8.732;2023-03-19T16:00:20;1.40;;;1.00;;
8001;SDS011;4046;48.774;8.732;2023-03-19T16:02:48;1.63;;;1.20;;
8001;SDS011;4046;48.774;8.732;2023-03-19T16:05:29;1.37;;;1.13;;
8001;SDS011;4046;48.774;8.732;2023-03-19T16:08:02;1.20;;;0.97;;
8001;SDS011;4046;48.774;8.732;2023-03-19T16:10:49;1.30;;;1.00;;
8001;SDS011;4046;48.774;8.732;2023-03-19T16:13:20;1.80;;;1.20;;
8001;SDS011;4046;48.774;8.732;2023-03-19T16:15:52;1.20;;;1.00;;
8001;SDS011;4046;48.774;8.732;2023-03-19T16:18:28;1.30;;;1.07;;
8001;SDS011;4046;48.774;8.732;2023-03-19T16:21:06;1.30;;;1.10;;
8001;SDS011;4046;48.774;8.732;2023-03-19T16:23:39;1.30;;;1.10;;
8001;SDS011;4046;48.774;8.732;2023-03-19T16:26:29;1.17;;;0.90;;
8001;SDS011;4046;48.774;8.732;2023-03-19T16:29:18;1.27;;;1.00;;
8001;SDS011;4046;48.774;8.732;2023-03-19T16:31:50;1.30;;;1.10;;
8001;SDS011;4046;48.774;8.732;2023-03-19T16:34:33;2.27;;;1.40;;
8001;SDS011;4046;48.774;8.732;2023-03-19T16:37:32;1.40;;;1.00;;
8001;SDS011;4046;48.774;8.732;2023-03-19T16:40:48;1.30;;;1.00;;
8001;SDS011;4046;48.774;8.732;2023-03-19T16:42:48;1.20;;;0.90;;
8001;SDS011;4046;48.774;8.732;2023-03-19T16:45:21;1.20;;;0.90;;
8001;SDS011;4046;48.774;8.732;2023-03-19T16:47:55;1.20;;;1.00;;
8001;SDS011;4046;48.774;8.732;2023-03-19T16:50:29;1.40;;;1.00;;
8001;SDS011;4046;48.774;8.732;2023-03-19T16:53:16;1.23;;;1.03;;
8001;SDS011;4046;48.774;8.732;2023-03-19T16:55:49;1.20;;;1.10;;
8001;SDS011;4046;48.774;8.732;2023-03-19T16:58:17;1.20;;;0.87;;
8001;SDS011;4046;48.774;8.732;2023-03-19T17:00:50;1.33;;;1.00;;
8001;SDS011;4046;48.774;8.732;2023-03-19T17:03:17;1.20;;;0.80;;
8001;SDS011;4046;48.774;8.732;2023-03-19T17:05:44;1.20;;;0.83;;
8001;SDS011;4046;48.774;8.732;2023-03-19T17:08:11;1.23;;;1.00;;
8001;SDS011;4046;48.774;8.732;2023-03-19T17:10:42;1.30;;;1.00;;
8001;SDS011;4046;48.774;8.732;2023-03-19T17:13:14;1.50;;;1.00;;
8001;SDS011;4046;48.774;8.732;2023-03-19T17:15:47;1.20;;;1.03;;
8001;SDS011;4046;48.774;8.732;2023-03-19T17:18:16;1.20;;;0.90;;
8001;SDS011;4046;48.774;8.732;2023-03-19T17:20:48;1.23;;;0.90;;
8001;SDS011;4046;48.774;8.732;2023-03-19T17:23:18;1.20;;;1.00;;
8001;SDS011;4046;48.774;8.732;2023-03-19T17:25:49;1.20;;;0.90;;